Terminal Aerodrome Forecast
Issued by NWS

Home | Current Version | Previous Version | Text Only | Print | Product List | Glossary On
Versions: 1 2 3 4 5 6 7 8 9 10 11 12 13 14 15
000
FTUS45 KFGZ 281300 AAA
TAFPRC
TAF AMD
KPRC 281355Z 2814/0112 20014G24KT P6SM SCT020 BKN025
     FM281800 22016G26KT P6SM BKN035
      TEMPO 2819/2823 5SM -SHRA BKN015
     FM010100 23013KT P6SM SCT040 OVC060=

USA.gov is the U.S. government's official web portal to all federal, state and local government web resources and services.